الصفحة الرئيسية
METAR-TAF:

METAR-TAF

مطار :

هراري, زيمبابوي

دائرة عرض: 17-55S, خط طول: 031-08E, ارتفاع: 1479 متر

مراقبة الطقس الحالي

تاريخ ووقت الإصدار 1ساعة و 0 دقيقة قبل الساعة 04:00UTC
ريح 7 عقدة من الجنوب/الجنوب الشرقي, الاتجاه يتراوح بين الشرق/الجنوب الشرقي و الجنوب
درجة الحرارة 8°درجة مئوية
الرطوبة 87%
ضغط 1032 hPa
الرؤية 10 كم أو أكثر
غيوم مفككة على ارتفاع 800 قدم

METAR: FVHA 180400Z 15007KT 110V180 9999 BKN008 08/06 Q1032 NOSIG

زمن: 07:00 (05:00 UTC)

توقعات

تاريخ ووقت الإصدار 13ساعات و 0 دقيقة قبل الساعة 16:00UTC
التوقعات صالحة من17 الساعة 18 UTC إلى 18 الساعة 24 UTC
ريح 10 عقدة من الجنوب الشرقي
الرؤية 10 كم أو أكثر
الغيوم لا تقل 1500 م ولا وجود لمزنة ركامية السحاب الأسود
مؤقت
من 18 الساعة 02 UTC إلى 18 الساعة 05 UTC
الرؤية 10 كم أو أكثر
غيوم مفككة على ارتفاع 800 قدم
أصبح
من 18 الساعة 09 UTC إلى 18 الساعة 11 UTC
غيوم متفرقة على ارتفاع 2000 قدم
من 18 الساعة 1300 UTC
الرؤية 10 كم أو أكثر
الغيوم لا تقل 1500 م ولا وجود لمزنة ركامية السحاب الأسود

TAF: FVHA 171600Z 1718/1824 14010KT CAVOK TEMPO 1802/1805 9999 BKN008 BECMG 1809/1811 SCT020 FM181300 /////KT CAVOK

أرصاد الطقس والتوقعات من أكثر من 4000 مطار (تقارير الطقس للمطار METAR والتنبؤ بالطقس بالمطارTAF).

المحطات المتاحة هي النقط الصفراء والحمراء على الخريطة.

حرك المؤشر فوق النقطة لمعرفة اسم المحطة.

ثم انقر لمعرفة أرصاد وتوقعات الطقس.

لتغيير الخارطة: اضغط على الأزرار الخضراء مع رمز الصليب الأسود للتكبير. على الزر الأخضر مع شرطة للتصغير، أو على الأسهم الخضراء للخرائط المجاورة.


METAR-TAF: